Time;durP1;ratioP1;P1;durP2;ratioP2;P2;SDS_P1;SDS_P2;PMS_P1;PMS_P2;Temp;Humidity;BMP_temperature;BMP_pressure;BME280_temperature;BME280_humidity;BME280_pressure;Samples;Min_cycle;Max_cycle;Signal;HPM_P1;HPM_P2
2021/06/16 00:01:52;;;;;;;6.13;3.72;;;;;;;;;;5092416;28;20056;-67
2021/06/16 00:04:18;;;;;;;6.80;3.55;;;;;;;;;;5093695;28;20442;-69
2021/06/16 00:06:44;;;;;;;7.65;3.38;;;;;;;;;;5093691;28;20039;-68
2021/06/16 00:09:10;;;;;;;4.22;3.17;;;;;;;;;;5093647;28;20023;-69
2021/06/16 00:11:36;;;;;;;4.28;3.78;;;;;;;;;;5094462;28;20016;-67
2021/06/16 00:14:04;;;;;;;11.00;4.13;;;;;;;;;;5094366;28;20107;-69
2021/06/16 00:16:30;;;;;;;7.85;5.10;;;;;;;;;;5093604;28;20103;-68
2021/06/16 00:18:56;;;;;;;6.55;4.70;;;;;;;;;;5093545;28;20477;-69
2021/06/16 00:21:22;;;;;;;6.78;4.53;;;;;;;;;;5093125;28;20115;-69
2021/06/16 00:23:49;;;;;;;6.38;3.90;;;;;;;;;;5093227;28;20042;-68
2021/06/16 00:26:16;;;;;;;8.13;3.97;;;;;;;;;;5093793;28;20020;-68
2021/06/16 00:28:42;;;;;;;5.28;3.75;;;;;;;;;;5093752;28;20073;-69
2021/06/16 00:31:08;;;;;;;5.93;3.53;;;;;;;;;;5093161;28;20095;-69
2021/06/16 00:33:34;;;;;;;5.70;4.10;;;;;;;;;;5093615;28;20075;-68
2021/06/16 00:36:01;;;;;;;7.05;3.65;;;;;;;;;;5092433;28;20020;-69
2021/06/16 00:38:27;;;;;;;4.75;3.25;;;;;;;;;;5092055;28;20056;-70
2021/06/16 00:40:53;;;;;;;6.18;3.90;;;;;;;;;;5093430;28;20036;-69
2021/06/16 00:43:20;;;;;;;9.07;2.85;;;;;;;;;;5093325;28;20020;-69
2021/06/16 00:45:46;;;;;;;5.72;3.78;;;;;;;;;;5093323;28;20480;-69
2021/06/16 00:48:12;;;;;;;3.30;2.92;;;;;;;;;;5092285;28;20495;-69
2021/06/16 00:50:39;;;;;;;6.40;3.85;;;;;;;;;;5093479;28;20103;-68
2021/06/16 00:53:06;;;;;;;5.13;3.47;;;;;;;;;;5093186;28;20396;-68
2021/06/16 00:55:37;;;;;;;4.13;3.05;;;;;;;;;;5093013;28;20356;-69
2021/06/16 00:58:03;;;;;;;4.32;3.10;;;;;;;;;;5093229;28;20020;-68
2021/06/16 01:00:33;;;;;;;7.88;4.00;;;;;;;;;;5093445;28;20048;-70
2021/06/16 01:03:11;;;;;;;9.82;3.33;;;;;;;;;;5095696;28;20056;-68
2021/06/16 01:05:41;;;;;;;4.97;4.38;;;;;;;;;;5097413;28;20024;-69
2021/06/16 01:08:07;;;;;;;4.47;3.35;;;;;;;;;;5097455;28;20082;-69
2021/06/16 01:10:36;;;;;;;6.03;3.03;;;;;;;;;;5097480;28;20373;-69
2021/06/16 01:13:05;;;;;;;7.25;3.95;;;;;;;;;;5096705;28;20277;-69
2021/06/16 01:15:45;;;;;;;15.13;3.90;;;;;;;;;;5097100;28;20073;-68
2021/06/16 01:18:12;;;;;;;7.25;3.75;;;;;;;;;;5097233;28;20028;-68
2021/06/16 01:20:42;;;;;;;12.27;4.30;;;;;;;;;;5095586;28;20028;-68
2021/06/16 01:23:08;;;;;;;8.88;3.97;;;;;;;;;;5097322;28;20024;-67
2021/06/16 01:25:57;;;;;;;7.53;4.18;;;;;;;;;;5096602;28;20107;-67
2021/06/16 01:28:24;;;;;;;5.47;3.95;;;;;;;;;;5093395;28;20103;-67
2021/06/16 01:30:51;;;;;;;7.05;3.55;;;;;;;;;;5096497;28;20485;-67
2021/06/16 01:33:18;;;;;;;5.03;4.30;;;;;;;;;;5096407;28;20504;-66
2021/06/16 01:35:51;;;;;;;5.25;3.67;;;;;;;;;;5096737;28;20024;-68
2021/06/16 01:38:18;;;;;;;5.22;3.53;;;;;;;;;;5096954;28;20039;-67
2021/06/16 01:40:45;;;;;;;5.20;3.20;;;;;;;;;;5095069;28;20128;-67
2021/06/16 01:43:12;;;;;;;10.95;4.60;;;;;;;;;;5096286;28;20492;-70
2021/06/16 01:45:40;;;;;;;4.95;3.33;;;;;;;;;;5096258;28;20024;-69
2021/06/16 01:48:07;;;;;;;4.97;3.53;;;;;;;;;;5095958;28;20461;-69
2021/06/16 01:50:34;;;;;;;8.38;3.92;;;;;;;;;;5096689;28;20024;-69
2021/06/16 01:53:00;;;;;;;5.43;3.83;;;;;;;;;;5096330;28;20078;-69
2021/06/16 01:55:27;;;;;;;9.23;2.83;;;;;;;;;;5096075;28;20103;-69
2021/06/16 01:57:55;;;;;;;4.72;2.70;;;;;;;;;;5096283;28;20055;-69
2021/06/16 02:00:21;;;;;;;6.20;3.22;;;;;;;;;;5096258;28;20020;-69
2021/06/16 02:02:47;;;;;;;9.65;4.85;;;;;;;;;;5096746;28;20126;-69
2021/06/16 02:05:18;;;;;;;5.57;4.32;;;;;;;;;;5096422;28;20099;-69
2021/06/16 02:07:54;;;;;;;7.07;3.55;;;;;;;;;;5096111;28;20080;-71
2021/06/16 02:10:23;;;;;;;7.47;4.27;;;;;;;;;;5096143;28;20434;-70
2021/06/16 02:12:50;;;;;;;8.00;3.85;;;;;;;;;;5094146;28;20062;-70
2021/06/16 02:15:16;;;;;;;;;;;;;;;;;;5095947;28;20032;-68
2021/06/16 02:17:51;;;;;;;3.65;3.28;;;;;;;;;;5095620;28;19904;-68
2021/06/16 02:20:20;;;;;;;4.40;3.00;;;;;;;;;;5096190;28;20024;-69
2021/06/16 02:22:47;;;;;;;11.23;4.47;;;;;;;;;;5095483;28;20024;-68
2021/06/16 02:25:13;;;;;;;8.95;4.72;;;;;;;;;;5094450;28;20024;-68
2021/06/16 02:27:40;;;;;;;7.33;3.47;;;;;;;;;;5095753;28;20048;-69
2021/06/16 02:30:07;;;;;;;7.30;3.83;;;;;;;;;;5095508;28;20027;-68
2021/06/16 02:32:33;;;;;;;10.00;4.05;;;;;;;;;;5095591;28;20039;-69
2021/06/16 02:35:00;;;;;;;9.48;3.65;;;;;;;;;;5095584;28;20028;-69
2021/06/16 02:37:26;;;;;;;7.57;3.05;;;;;;;;;;5095308;28;20016;-69
2021/06/16 02:39:55;;;;;;;5.40;3.42;;;;;;;;;;5095203;28;20016;-69
2021/06/16 02:42:22;;;;;;;11.35;3.60;;;;;;;;;;5095067;28;20468;-68
2021/06/16 02:44:49;;;;;;;8.63;4.05;;;;;;;;;;5095053;28;20024;-68
2021/06/16 02:47:16;;;;;;;7.30;4.07;;;;;;;;;;5095606;28;20433;-68
2021/06/16 02:49:44;;;;;;;8.15;4.22;;;;;;;;;;5094975;28;20048;-68
2021/06/16 02:52:11;;;;;;;5.88;3.03;;;;;;;;;;5094941;28;20451;-68
2021/06/16 02:54:38;;;;;;;8.50;4.00;;;;;;;;;;5094832;28;20032;-69
2021/06/16 02:57:05;;;;;;;8.45;5.28;;;;;;;;;;5094744;28;20450;-68
2021/06/16 02:59:31;;;;;;;9.32;3.28;;;;;;;;;;5095082;28;20057;-68
2021/06/16 03:01:58;;;;;;;8.05;4.13;;;;;;;;;;5094804;28;20048;-70
2021/06/16 03:04:25;;;;;;;18.23;4.80;;;;;;;;;;5094854;28;20084;-68
2021/06/16 03:06:52;;;;;;;8.52;4.30;;;;;;;;;;5094963;28;20099;-69
2021/06/16 03:09:19;;;;;;;7.55;4.82;;;;;;;;;;5094603;28;20372;-68
2021/06/16 03:11:45;;;;;;;7.60;4.30;;;;;;;;;;5094388;28;20024;-69
2021/06/16 03:14:12;;;;;;;8.05;4.10;;;;;;;;;;5094985;28;20024;-70
2021/06/16 03:16:38;;;;;;;7.20;4.18;;;;;;;;;;5094493;28;20024;-68
2021/06/16 03:19:05;;;;;;;8.63;4.90;;;;;;;;;;5093129;28;20115;-68
2021/06/16 03:21:34;;;;;;;8.68;4.38;;;;;;;;;;5095213;28;20046;-70
2021/06/16 03:24:00;;;;;;;11.25;4.90;;;;;;;;;;5094145;28;20016;-69
2021/06/16 03:26:27;;;;;;;6.27;3.87;;;;;;;;;;5093069;28;20058;-68
2021/06/16 03:28:54;;;;;;;8.23;4.70;;;;;;;;;;5093484;28;20704;-70
2021/06/16 03:31:20;;;;;;;3.90;3.42;;;;;;;;;;5093175;28;20054;-68
2021/06/16 03:33:48;;;;;;;9.93;5.57;;;;;;;;;;5094634;28;20035;-69
2021/06/16 03:36:14;;;;;;;8.85;4.03;;;;;;;;;;5094704;28;20044;-70
2021/06/16 03:38:42;;;;;;;8.30;4.13;;;;;;;;;;5093805;28;20020;-69
2021/06/16 03:41:09;;;;;;;9.90;3.85;;;;;;;;;;5094306;28;20031;-70
2021/06/16 03:43:36;;;;;;;7.30;3.97;;;;;;;;;;5093779;28;20377;-68
2021/06/16 03:46:06;;;;;;;9.05;4.22;;;;;;;;;;5093915;28;20107;-68
2021/06/16 03:48:33;;;;;;;7.20;5.00;;;;;;;;;;5092910;28;20028;-69
2021/06/16 03:50:59;;;;;;;6.97;4.07;;;;;;;;;;5092902;28;20030;-70
2021/06/16 03:53:26;;;;;;;6.80;3.40;;;;;;;;;;5093091;28;20476;-70
2021/06/16 03:55:52;;;;;;;12.10;4.07;;;;;;;;;;5093754;28;20024;-70
2021/06/16 03:58:19;;;;;;;5.30;3.15;;;;;;;;;;5094129;28;20049;-69
2021/06/16 04:00:45;;;;;;;7.53;3.72;;;;;;;;;;5092972;28;20020;-69
2021/06/16 04:03:12;;;;;;;8.25;2.90;;;;;;;;;;5093875;28;20060;-69
2021/06/16 04:05:38;;;;;;;5.18;3.55;;;;;;;;;;5093763;28;20021;-68
2021/06/16 04:08:06;;;;;;;7.40;3.95;;;;;;;;;;5093469;28;20028;-70
2021/06/16 04:10:32;;;;;;;;;;;;;;;;;;5094166;28;20073;-68
2021/06/16 04:12:58;;;;;;;8.82;5.40;;;;;;;;;;5093671;28;19999;-71
2021/06/16 04:15:24;;;;;;;9.85;4.00;;;;;;;;;;5092306;28;20028;-67
2021/06/16 04:17:54;;;;;;;8.52;3.97;;;;;;;;;;5092920;28;20107;-71
2021/06/16 04:20:20;;;;;;;7.63;3.83;;;;;;;;;;5092601;28;20437;-69
2021/06/16 04:22:46;;;;;;;11.95;4.55;;;;;;;;;;5093264;28;20072;-70
2021/06/16 04:25:13;;;;;;;10.75;4.57;;;;;;;;;;5092202;28;20028;-68
2021/06/16 04:27:39;;;;;;;6.80;3.30;;;;;;;;;;5093427;28;20027;-69
2021/06/16 04:30:07;;;;;;;7.95;4.13;;;;;;;;;;5093778;28;20020;-71
2021/06/16 04:32:33;;;;;;;8.25;4.88;;;;;;;;;;5093652;28;20027;-70
2021/06/16 04:34:59;;;;;;;6.43;4.13;;;;;;;;;;5094380;28;20020;-69
2021/06/16 04:37:25;;;;;;;8.73;3.90;;;;;;;;;;5096571;28;20107;-71
2021/06/16 04:39:52;;;;;;;6.80;4.10;;;;;;;;;;5097688;28;20114;-71
2021/06/16 04:42:18;;;;;;;11.98;4.70;;;;;;;;;;5097571;28;20020;-68
2021/06/16 04:44:44;;;;;;;6.97;3.78;;;;;;;;;;5097710;28;20022;-71
2021/06/16 04:47:11;;;;;;;13.48;3.03;;;;;;;;;;5096674;28;20115;-71
2021/06/16 04:49:38;;;;;;;7.47;3.17;;;;;;;;;;5096131;28;20024;-73
2021/06/16 04:52:05;;;;;;;4.90;3.17;;;;;;;;;;5096322;28;20047;-74
2021/06/16 04:54:31;;;;;;;10.43;2.70;;;;;;;;;;5097495;28;20042;-73
2021/06/16 04:57:04;;;;;;;10.88;2.22;;;;;;;;;;5097185;28;20024;-72
2021/06/16 04:59:30;;;;;;;3.78;2.58;;;;;;;;;;5097072;28;20353;-69
2021/06/16 05:01:56;;;;;;;5.53;2.33;;;;;;;;;;5097368;28;20044;-71
2021/06/16 05:04:22;;;;;;;4.43;2.28;;;;;;;;;;5097082;28;20020;-70
2021/06/16 05:06:48;;;;;;;8.25;3.95;;;;;;;;;;5097568;28;20029;-72
2021/06/16 05:09:15;;;;;;;3.83;2.17;;;;;;;;;;5095698;28;20016;-70
2021/06/16 05:11:41;;;;;;;3.83;2.38;;;;;;;;;;5098397;28;20065;-70
2021/06/16 05:14:07;;;;;;;9.75;2.72;;;;;;;;;;5097084;28;20377;-71
2021/06/16 05:16:33;;;;;;;11.57;2.33;;;;;;;;;;5096543;28;20035;-70
2021/06/16 05:18:59;;;;;;;6.60;2.67;;;;;;;;;;5097036;28;20473;-70
2021/06/16 05:21:26;;;;;;;5.97;1.53;;;;;;;;;;5097342;28;20035;-70
2021/06/16 05:23:52;;;;;;;5.70;2.40;;;;;;;;;;5096937;28;20032;-71
2021/06/16 05:26:18;;;;;;;2.75;1.77;;;;;;;;;;5097497;28;20465;-70
2021/06/16 05:28:44;;;;;;;4.03;2.03;;;;;;;;;;5097203;28;20028;-71
2021/06/16 05:31:11;;;;;;;6.43;1.70;;;;;;;;;;5096722;28;20529;-70
2021/06/16 05:33:37;;;;;;;5.22;2.10;;;;;;;;;;5096749;28;20036;-70
2021/06/16 05:36:04;;;;;;;5.63;1.67;;;;;;;;;;5097277;28;20105;-71
2021/06/16 05:38:31;;;;;;;3.10;1.73;;;;;;;;;;5096092;28;20272;-69
2021/06/16 05:40:57;;;;;;;7.73;2.30;;;;;;;;;;5096667;28;20021;-69
2021/06/16 05:43:23;;;;;;;3.80;1.80;;;;;;;;;;5096867;28;20309;-71
2021/06/16 05:45:49;;;;;;;4.13;2.75;;;;;;;;;;5096549;28;20028;-70
2021/06/16 05:48:16;;;;;;;3.10;1.70;;;;;;;;;;5095940;28;20027;-69
2021/06/16 05:50:42;;;;;;;5.70;2.55;;;;;;;;;;5096200;28;20332;-70
2021/06/16 05:53:11;;;;;;;5.18;1.73;;;;;;;;;;5096023;28;20039;-70
2021/06/16 05:55:38;;;;;;;3.67;1.75;;;;;;;;;;5096667;28;20504;-70
2021/06/16 05:58:04;;;;;;;4.30;1.90;;;;;;;;;;5096345;28;20022;-71
2021/06/16 06:00:30;;;;;;;5.70;2.03;;;;;;;;;;5094655;28;20261;-70
2021/06/16 06:02:56;;;;;;;7.57;1.73;;;;;;;;;;5096863;28;20051;-70
2021/06/16 06:05:23;;;;;;;6.85;1.60;;;;;;;;;;5095943;28;20043;-72
2021/06/16 06:07:49;;;;;;;7.55;1.98;;;;;;;;;;5095805;28;20020;-69
2021/06/16 06:10:15;;;;;;;3.83;1.55;;;;;;;;;;5096637;28;20032;-70
2021/06/16 06:12:41;;;;;;;3.95;2.22;;;;;;;;;;5095675;28;20021;-70
2021/06/16 06:15:09;;;;;;;11.20;2.25;;;;;;;;;;5094725;28;20030;-70
2021/06/16 06:17:35;;;;;;;3.53;1.42;;;;;;;;;;5095694;28;20020;-69
2021/06/16 06:20:01;;;;;;;1.00;1.00;;;;;;;;;;5096025;28;20025;-71
2021/06/16 06:22:27;;;;;;;4.17;2.43;;;;;;;;;;5095583;28;20099;-69
2021/06/16 06:24:54;;;;;;;4.25;2.17;;;;;;;;;;5095837;28;20016;-69
2021/06/16 06:27:20;;;;;;;2.25;1.42;;;;;;;;;;5095743;28;20020;-70
2021/06/16 06:29:46;;;;;;;4.60;1.63;;;;;;;;;;5094384;28;20024;-69
2021/06/16 06:32:12;;;;;;;4.07;1.90;;;;;;;;;;5095622;28;20031;-70
2021/06/16 06:34:38;;;;;;;5.82;2.45;;;;;;;;;;5095387;28;20081;-69
2021/06/16 06:37:04;;;;;;;3.95;1.95;;;;;;;;;;5095598;28;20072;-68
2021/06/16 06:39:30;;;;;;;2.92;1.67;;;;;;;;;;5096352;28;20031;-69
2021/06/16 06:41:57;;;;;;;3.83;1.88;;;;;;;;;;5095442;28;20020;-69
2021/06/16 06:44:23;;;;;;;6.13;1.60;;;;;;;;;;5095343;28;20030;-69
2021/06/16 06:46:49;;;;;;;2.22;1.52;;;;;;;;;;5095418;28;20101;-72
2021/06/16 06:49:15;;;;;;;9.88;1.65;;;;;;;;;;5095091;28;20024;-69
2021/06/16 06:51:41;;;;;;;3.70;1.52;;;;;;;;;;5095474;28;20020;-70
2021/06/16 06:54:08;;;;;;;8.10;1.70;;;;;;;;;;5095165;28;20073;-71
2021/06/16 06:56:38;;;;;;;2.72;1.23;;;;;;;;;;5095227;28;20016;-71
2021/06/16 06:59:04;;;;;;;4.38;1.80;;;;;;;;;;5094853;28;20047;-70
2021/06/16 07:01:31;;;;;;;2.47;1.27;;;;;;;;;;5094500;28;20044;-69
2021/06/16 07:04:01;;;;;;;4.88;1.00;;;;;;;;;;5095637;28;20035;-69
2021/06/16 07:06:27;;;;;;;2.72;1.33;;;;;;;;;;5094996;28;20488;-71
2021/06/16 07:08:54;;;;;;;5.60;2.20;;;;;;;;;;5094653;28;20031;-71
2021/06/16 07:11:20;;;;;;;5.80;1.85;;;;;;;;;;5094666;28;20021;-70
2021/06/16 07:13:46;;;;;;;3.60;1.40;;;;;;;;;;5094869;28;20381;-69
2021/06/16 07:16:12;;;;;;;8.75;2.10;;;;;;;;;;5093562;28;20031;-69
2021/06/16 07:18:38;;;;;;;5.80;0.95;;;;;;;;;;5093227;28;20024;-70
2021/06/16 07:21:04;;;;;;;2.43;1.43;;;;;;;;;;5093184;28;20024;-69
2021/06/16 07:23:31;;;;;;;4.00;1.88;;;;;;;;;;5094948;28;20020;-70
2021/06/16 07:25:57;;;;;;;1.45;1.35;;;;;;;;;;5094373;28;20024;-68
2021/06/16 07:28:23;;;;;;;8.85;3.10;;;;;;;;;;5094602;28;20016;-70
2021/06/16 07:30:49;;;;;;;3.73;1.27;;;;;;;;;;5094741;28;20097;-69
2021/06/16 07:33:15;;;;;;;5.37;2.07;;;;;;;;;;5093900;28;20473;-69
2021/06/16 07:35:43;;;;;;;8.70;1.77;;;;;;;;;;5094470;28;20077;-70
2021/06/16 07:38:09;;;;;;;6.38;1.73;;;;;;;;;;5094569;28;20368;-69
2021/06/16 07:40:35;;;;;;;1.65;1.27;;;;;;;;;;5094161;28;20024;-71
2021/06/16 07:43:03;;;;;;;7.47;1.90;;;;;;;;;;5094350;28;20031;-70
2021/06/16 07:45:29;;;;;;;4.32;1.15;;;;;;;;;;5093047;28;20020;-70
2021/06/16 07:47:55;;;;;;;2.73;0.80;;;;;;;;;;5093947;28;20019;-69
2021/06/16 07:50:21;;;;;;;4.30;1.80;;;;;;;;;;5094542;28;20020;-70
2021/06/16 07:52:48;;;;;;;5.97;1.30;;;;;;;;;;5093812;28;20297;-70
2021/06/16 07:55:14;;;;;;;5.97;1.83;;;;;;;;;;5093956;28;20369;-70
2021/06/16 07:57:40;;;;;;;2.38;0.88;;;;;;;;;;5093816;28;20346;-69
2021/06/16 08:00:07;;;;;;;4.30;1.20;;;;;;;;;;5094659;28;20020;-70
2021/06/16 08:02:33;;;;;;;3.75;1.48;;;;;;;;;;5094017;28;20059;-70
2021/06/16 08:04:59;;;;;;;5.63;1.07;;;;;;;;;;5093819;28;20099;-70
2021/06/16 08:07:25;;;;;;;4.78;0.77;;;;;;;;;;5092791;28;20020;-69
2021/06/16 08:09:52;;;;;;;2.50;0.87;;;;;;;;;;5093309;28;20381;-70
2021/06/16 08:12:18;;;;;;;2.27;1.07;;;;;;;;;;5092865;28;20284;-69
2021/06/16 08:14:44;;;;;;;4.80;0.80;;;;;;;;;;5093796;28;20047;-68
2021/06/16 08:17:11;;;;;;;1.08;1.00;;;;;;;;;;5094221;28;20043;-70
2021/06/16 08:19:37;;;;;;;5.22;0.82;;;;;;;;;;5093964;28;20027;-70
2021/06/16 08:22:05;;;;;;;1.98;1.40;;;;;;;;;;5093580;28;20085;-68
2021/06/16 08:24:31;;;;;;;2.92;1.42;;;;;;;;;;5093850;28;20024;-70
2021/06/16 08:26:57;;;;;;;2.20;1.10;;;;;;;;;;5093535;28;20055;-69
2021/06/16 08:29:23;;;;;;;2.22;0.60;;;;;;;;;;5093504;28;20023;-69
2021/06/16 08:31:49;;;;;;;2.37;1.37;;;;;;;;;;5093802;28;20028;-70
2021/06/16 08:34:15;;;;;;;2.40;0.63;;;;;;;;;;5093453;28;20413;-68
2021/06/16 08:36:44;;;;;;;2.50;1.00;;;;;;;;;;5093735;28;20282;-71
2021/06/16 08:39:10;;;;;;;19.15;2.20;;;;;;;;;;5093540;28;20032;-71
2021/06/16 08:41:37;;;;;;;3.15;0.65;;;;;;;;;;5092403;28;20484;-69
2021/06/16 08:44:03;;;;;;;1.00;0.90;;;;;;;;;;5093315;28;20032;-69
2021/06/16 08:46:31;;;;;;;5.13;0.93;;;;;;;;;;5094154;28;20024;-69
2021/06/16 08:48:57;;;;;;;1.55;0.80;;;;;;;;;;5093629;28;20016;-68
2021/06/16 08:51:24;;;;;;;2.60;0.50;;;;;;;;;;5093493;28;20040;-70
2021/06/16 08:53:50;;;;;;;2.22;0.68;;;;;;;;;;5092208;28;20408;-69
2021/06/16 08:56:16;;;;;;;2.35;0.85;;;;;;;;;;5093671;28;20024;-68
2021/06/16 08:58:43;;;;;;;2.42;0.73;;;;;;;;;;5092962;28;20024;-69
2021/06/16 09:01:09;;;;;;;;;;;;;;;;;;5093429;28;20483;-70
2021/06/16 09:03:35;;;;;;;2.67;1.02;;;;;;;;;;5093234;28;19998;-69
2021/06/16 09:06:11;;;;;;;4.45;1.75;;;;;;;;;;5091873;28;20112;-70
2021/06/16 09:09:00;;;;;;;5.20;0.65;;;;;;;;;;5093739;28;20020;-72
2021/06/16 09:11:26;;;;;;;1.73;0.60;;;;;;;;;;5086227;28;20024;-70
2021/06/16 09:14:09;;;;;;;3.83;1.05;;;;;;;;;;5092038;28;20125;-70
2021/06/16 09:16:35;;;;;;;1.35;0.90;;;;;;;;;;5092127;28;20081;-70
2021/06/16 09:19:01;;;;;;;1.17;1.05;;;;;;;;;;5093186;28;20039;-68
2021/06/16 09:21:35;;;;;;;2.70;0.90;;;;;;;;;;5093382;28;20513;-69
2021/06/16 09:24:02;;;;;;;1.45;0.75;;;;;;;;;;5097145;28;20488;-70
2021/06/16 09:26:32;;;;;;;2.85;0.45;;;;;;;;;;5096679;28;20066;-69
2021/06/16 09:28:58;;;;;;;16.65;1.52;;;;;;;;;;5096599;28;20153;-68
2021/06/16 09:31:25;;;;;;;1.17;1.08;;;;;;;;;;5096658;28;20095;-68
2021/06/16 09:33:52;;;;;;;2.58;0.77;;;;;;;;;;5094822;28;20043;-70
2021/06/16 09:36:18;;;;;;;;;;;;;;;;;;5097166;28;20020;-69
2021/06/16 09:38:46;;;;;;;5.32;1.20;;;;;;;;;;5096615;28;19904;-71
2021/06/16 09:41:13;;;;;;;6.60;0.85;;;;;;;;;;5095358;28;20110;-69
2021/06/16 09:43:40;;;;;;;3.47;0.70;;;;;;;;;;5096862;28;20024;-69
2021/06/16 09:46:06;;;;;;;;;;;;;;;;;;5096424;28;20367;-69
2021/06/16 09:48:40;;;;;;;2.10;0.65;;;;;;;;;;5095287;28;19910;-69
2021/06/16 09:51:09;;;;;;;3.42;0.60;;;;;;;;;;5095206;28;20028;-69
2021/06/16 09:53:51;;;;;;;2.80;1.58;;;;;;;;;;5096239;28;20036;-70
2021/06/16 09:56:17;;;;;;;3.28;0.90;;;;;;;;;;5096474;28;20020;-70
2021/06/16 09:58:43;;;;;;;0.77;0.50;;;;;;;;;;5096699;28;20077;-71
2021/06/16 10:01:09;;;;;;;5.90;0.88;;;;;;;;;;5095743;28;20024;-70
2021/06/16 10:03:36;;;;;;;1.40;0.68;;;;;;;;;;5096142;28;20028;-68
2021/06/16 10:06:03;;;;;;;2.20;0.70;;;;;;;;;;5095948;28;20026;-70
2021/06/16 10:08:29;;;;;;;1.30;0.30;;;;;;;;;;5095858;28;20103;-69
2021/06/16 10:10:55;;;;;;;4.10;1.13;;;;;;;;;;5096686;28;20031;-68
2021/06/16 10:13:25;;;;;;;2.63;0.77;;;;;;;;;;5094671;28;20119;-71
2021/06/16 10:15:51;;;;;;;4.43;0.60;;;;;;;;;;5095753;28;20154;-69
2021/06/16 10:18:17;;;;;;;2.90;0.80;;;;;;;;;;5094721;28;20023;-69
2021/06/16 10:20:44;;;;;;;0.45;0.38;;;;;;;;;;5095810;28;20085;-70
2021/06/16 10:23:10;;;;;;;7.18;0.77;;;;;;;;;;5095901;28;20032;-70
2021/06/16 10:25:37;;;;;;;1.65;0.63;;;;;;;;;;5095856;28;20032;-69
2021/06/16 10:28:03;;;;;;;1.02;0.45;;;;;;;;;;5095490;28;20149;-69
2021/06/16 10:30:39;;;;;;;1.85;0.40;;;;;;;;;;5096215;28;20066;-70
2021/06/16 10:33:25;;;;;;;0.55;0.30;;;;;;;;;;5095485;28;20024;-69
2021/06/16 10:36:06;;;;;;;2.08;0.65;;;;;;;;;;5095356;28;20035;-68
2021/06/16 10:38:32;;;;;;;0.88;0.60;;;;;;;;;;5095686;28;20054;-69
2021/06/16 10:40:59;;;;;;;1.55;0.60;;;;;;;;;;5095532;28;20028;-70
2021/06/16 10:43:29;;;;;;;4.60;0.77;;;;;;;;;;5094895;28;20024;-71
2021/06/16 10:46:16;;;;;;;1.98;0.40;;;;;;;;;;5094145;28;20020;-69
2021/06/16 10:48:56;;;;;;;1.27;0.30;;;;;;;;;;5095314;28;20027;-69
2021/06/16 10:51:25;;;;;;;1.10;0.45;;;;;;;;;;5095370;28;20112;-70
2021/06/16 10:54:11;;;;;;;1.40;0.88;;;;;;;;;;5093857;28;20381;-70
2021/06/16 10:56:41;;;;;;;0.63;0.20;;;;;;;;;;5094644;28;20024;-69
2021/06/16 10:59:08;;;;;;;1.05;0.20;;;;;;;;;;5093876;28;20058;-70
2021/06/16 11:01:50;;;;;;;0.85;0.50;;;;;;;;;;5094935;28;20055;-69
2021/06/16 11:04:32;;;;;;;0.88;0.50;;;;;;;;;;5095098;28;20046;-70
2021/06/16 11:06:59;;;;;;;1.38;0.77;;;;;;;;;;5095565;28;20028;-70
2021/06/16 11:09:44;;;;;;;0.43;0.40;;;;;;;;;;5095006;28;20028;-70
2021/06/16 11:12:10;;;;;;;3.00;0.60;;;;;;;;;;5095220;28;20024;-68
2021/06/16 11:14:36;;;;;;;3.85;0.93;;;;;;;;;;5094845;28;20020;-69
2021/06/16 11:17:12;;;;;;;0.43;0.40;;;;;;;;;;5094949;28;20024;-68
2021/06/16 11:19:40;;;;;;;1.38;0.57;;;;;;;;;;5095369;28;20373;-70
2021/06/16 11:22:09;;;;;;;0.35;0.35;;;;;;;;;;5094750;28;20051;-70
2021/06/16 11:24:54;;;;;;;1.55;0.63;;;;;;;;;;5094135;28;20045;-71
2021/06/16 11:27:38;;;;;;;4.72;0.63;;;;;;;;;;5094365;28;20025;-69
2021/06/16 11:30:05;;;;;;;2.58;0.77;;;;;;;;;;5093334;28;20024;-70
2021/06/16 11:32:31;;;;;;;1.88;0.60;;;;;;;;;;5094260;28;20054;-70
2021/06/16 11:34:57;;;;;;;2.15;0.32;;;;;;;;;;5094708;28;20494;-70
2021/06/16 11:37:42;;;;;;;4.07;0.60;;;;;;;;;;5094501;28;20102;-69
2021/06/16 11:40:08;;;;;;;0.47;0.22;;;;;;;;;;5094286;28;20028;-69
2021/06/16 11:42:39;;;;;;;1.48;0.70;;;;;;;;;;5094665;28;20020;-71
2021/06/16 11:45:06;;;;;;;0.95;0.38;;;;;;;;;;5093449;28;20024;-70
2021/06/16 11:47:32;;;;;;;0.52;0.50;;;;;;;;;;5094299;28;20017;-68
2021/06/16 11:50:02;;;;;;;1.48;0.40;;;;;;;;;;5094338;28;20062;-70
2021/06/16 11:52:28;;;;;;;1.45;0.70;;;;;;;;;;5094225;28;20121;-70
2021/06/16 11:54:57;;;;;;;1.85;0.30;;;;;;;;;;5093934;28;20034;-71
2021/06/16 11:57:27;;;;;;;1.08;0.60;;;;;;;;;;5094051;28;20030;-68
2021/06/16 11:59:54;;;;;;;2.53;0.80;;;;;;;;;;5093783;28;20502;-69
2021/06/16 12:02:24;;;;;;;0.60;0.40;;;;;;;;;;5093778;28;20048;-70
2021/06/16 12:04:51;;;;;;;4.25;0.50;;;;;;;;;;5094367;28;20050;-69
2021/06/16 12:07:28;;;;;;;3.30;0.88;;;;;;;;;;5092703;28;20115;-70
2021/06/16 12:09:55;;;;;;;1.38;0.25;;;;;;;;;;5094581;28;20024;-70
2021/06/16 12:12:21;;;;;;;0.50;0.50;;;;;;;;;;5093973;28;20024;-70
2021/06/16 12:14:48;;;;;;;1.55;0.52;;;;;;;;;;5092262;28;20055;-70
2021/06/16 12:17:14;;;;;;;0.77;0.30;;;;;;;;;;5093661;28;20056;-69
2021/06/16 12:19:40;;;;;;;1.98;0.63;;;;;;;;;;5092613;28;20095;-68
2021/06/16 12:22:08;;;;;;;2.58;0.75;;;;;;;;;;5093588;28;20024;-70
2021/06/16 12:24:36;;;;;;;2.78;0.30;;;;;;;;;;5092566;28;20062;-69
2021/06/16 12:27:02;;;;;;;2.60;0.60;;;;;;;;;;5098117;28;20024;-69
2021/06/16 12:29:29;;;;;;;0.95;0.45;;;;;;;;;;5093829;28;20012;-67
2021/06/16 12:31:57;;;;;;;6.03;0.80;;;;;;;;;;5094017;28;20074;-67
2021/06/16 12:34:35;;;;;;;3.05;0.68;;;;;;;;;;5094433;28;20028;-69
2021/06/16 12:37:04;;;;;;;3.90;0.68;;;;;;;;;;5093748;28;20020;-68
2021/06/16 12:39:32;;;;;;;3.60;0.75;;;;;;;;;;5093964;28;20461;-68
2021/06/16 12:42:03;;;;;;;0.98;0.32;;;;;;;;;;5093081;28;20107;-68
2021/06/16 12:44:37;;;;;;;0.30;0.30;;;;;;;;;;5093688;28;20024;-69
2021/06/16 12:47:03;;;;;;;5.35;1.00;;;;;;;;;;5093953;28;20077;-68
2021/06/16 12:49:47;;;;;;;9.07;1.35;;;;;;;;;;5093304;28;20020;-69
2021/06/16 12:52:26;;;;;;;1.17;0.45;;;;;;;;;;5093990;28;20028;-69
2021/06/16 12:54:52;;;;;;;4.47;0.88;;;;;;;;;;5091094;28;20036;-70
2021/06/16 12:57:19;;;;;;;9.90;0.90;;;;;;;;;;5094095;28;20084;-70
2021/06/16 12:59:46;;;;;;;6.70;0.88;;;;;;;;;;5097226;28;20035;-69
2021/06/16 13:02:14;;;;;;;6.55;0.60;;;;;;;;;;5095941;28;20048;-70
2021/06/16 13:04:47;;;;;;;3.10;0.55;;;;;;;;;;5075563;28;20411;-67
2021/06/16 13:07:14;;;;;;;2.95;0.55;;;;;;;;;;5076500;28;20595;-68
2021/06/16 13:09:40;;;;;;;2.53;0.65;;;;;;;;;;5075896;28;20457;-70
2021/06/16 13:12:07;;;;;;;2.30;0.95;;;;;;;;;;5085436;28;20024;-70
2021/06/16 13:14:35;;;;;;;;;;;;;;;;;;5096873;28;20028;-70
2021/06/16 13:17:08;;;;;;;20.98;18.63;;;;;;;;;;5096285;28;19904;-70
2021/06/16 13:19:34;;;;;;;6.82;6.32;;;;;;;;;;5095878;28;20056;-70
2021/06/16 13:22:03;;;;;;;23.52;21.45;;;;;;;;;;5096193;28;20020;-68
2021/06/16 13:24:31;;;;;;;1.33;1.25;;;;;;;;;;5096447;28;20024;-69
2021/06/16 13:27:05;;;;;;;6.70;0.95;;;;;;;;;;5095761;28;20027;-69
2021/06/16 13:29:32;;;;;;;3.20;0.80;;;;;;;;;;5095998;28;20051;-69
2021/06/16 13:31:59;;;;;;;3.20;0.50;;;;;;;;;;5095927;28;20099;-70
2021/06/16 13:34:25;;;;;;;2.67;0.40;;;;;;;;;;5095515;28;20035;-69
2021/06/16 13:36:51;;;;;;;2.35;0.50;;;;;;;;;;5095788;28;20028;-68
2021/06/16 13:39:18;;;;;;;0.90;0.75;;;;;;;;;;5096131;28;20055;-67
2021/06/16 13:42:00;;;;;;;1.15;0.43;;;;;;;;;;5095446;28;20024;-69
2021/06/16 13:44:26;;;;;;;1.13;0.70;;;;;;;;;;5095797;28;20028;-70
2021/06/16 13:46:52;;;;;;;4.97;1.05;;;;;;;;;;5095785;28;20377;-70
2021/06/16 13:49:19;;;;;;;1.00;0.50;;;;;;;;;;5093748;28;20620;-69
2021/06/16 13:51:45;;;;;;;6.70;0.70;;;;;;;;;;5095437;28;20019;-69
2021/06/16 13:54:14;;;;;;;1.75;0.60;;;;;;;;;;5095455;28;20055;-69
2021/06/16 13:56:44;;;;;;;1.77;0.70;;;;;;;;;;5095058;28;20024;-69
2021/06/16 13:59:10;;;;;;;1.33;0.77;;;;;;;;;;5095484;28;20016;-68
2021/06/16 14:01:36;;;;;;;2.45;0.80;;;;;;;;;;5095531;28;20055;-67
2021/06/16 14:04:03;;;;;;;2.92;0.88;;;;;;;;;;5094395;28;20425;-69
2021/06/16 14:06:29;;;;;;;1.83;0.22;;;;;;;;;;5094768;28;20020;-70
2021/06/16 14:08:56;;;;;;;2.33;0.70;;;;;;;;;;5094058;28;20015;-68
2021/06/16 14:11:22;;;;;;;3.20;0.68;;;;;;;;;;5094184;28;20012;-68
2021/06/16 14:13:49;;;;;;;0.38;0.38;;;;;;;;;;5094370;28;20043;-70
2021/06/16 14:16:15;;;;;;;1.13;0.45;;;;;;;;;;5093857;28;20385;-69
2021/06/16 14:18:41;;;;;;;2.47;0.50;;;;;;;;;;5094869;28;20020;-69
2021/06/16 14:21:07;;;;;;;3.95;0.73;;;;;;;;;;5094308;28;20024;-70
2021/06/16 14:23:33;;;;;;;0.63;0.63;;;;;;;;;;5093841;28;20035;-69
2021/06/16 14:25:59;;;;;;;0.98;0.73;;;;;;;;;;5091817;28;20024;-69
2021/06/16 14:28:26;;;;;;;3.83;0.63;;;;;;;;;;5093698;28;20031;-70
2021/06/16 14:30:52;;;;;;;3.65;0.85;;;;;;;;;;5094499;28;20028;-69
2021/06/16 14:33:19;;;;;;;4.38;0.95;;;;;;;;;;5092560;28;20094;-69
2021/06/16 14:35:47;;;;;;;2.72;0.38;;;;;;;;;;5094384;28;20043;-69
2021/06/16 14:38:13;;;;;;;1.10;0.43;;;;;;;;;;5094460;28;20081;-68
2021/06/16 14:40:40;;;;;;;3.08;1.02;;;;;;;;;;5093459;28;20076;-69
2021/06/16 14:43:06;;;;;;;2.67;0.47;;;;;;;;;;5094068;28;20028;-69
2021/06/16 14:45:32;;;;;;;1.13;0.60;;;;;;;;;;5092672;28;20043;-70
2021/06/16 14:47:59;;;;;;;1.73;0.70;;;;;;;;;;5093200;28;20020;-70